createdAt,value
2022-12-06T00:00:49.763Z,4.57
2022-12-06T00:03:17.072Z,5.20
2022-12-06T00:05:46.359Z,4.95
2022-12-06T00:08:13.858Z,5.63
2022-12-06T00:10:41.106Z,5.63
2022-12-06T00:13:08.268Z,7.03
2022-12-06T00:15:37.286Z,7.35
2022-12-06T00:18:04.490Z,7.13
2022-12-06T00:20:31.667Z,5.80
2022-12-06T00:22:58.797Z,4.72
2022-12-06T00:25:25.926Z,6.60
2022-12-06T00:27:53.092Z,8.55
2022-12-06T00:30:20.285Z,5.72
2022-12-06T00:32:47.418Z,6.43
2022-12-06T00:35:14.584Z,6.07
2022-12-06T00:37:41.706Z,7.93
2022-12-06T00:40:09.212Z,5.40
2022-12-06T00:42:36.356Z,6.15
2022-12-06T00:45:03.520Z,5.40
2022-12-06T00:47:30.636Z,6.07
2022-12-06T00:49:58.062Z,6.53
2022-12-06T00:52:25.342Z,7.25
2022-12-06T00:54:52.616Z,8.10
2022-12-06T00:57:19.749Z,8.15
2022-12-06T00:59:46.852Z,5.72
2022-12-06T01:02:13.991Z,5.95
2022-12-06T01:04:41.123Z,6.75
2022-12-06T01:07:08.281Z,5.60
2022-12-06T01:09:35.465Z,5.97
2022-12-06T01:12:02.607Z,6.25
2022-12-06T01:14:29.723Z,6.88
2022-12-06T01:16:56.941Z,6.13
2022-12-06T01:19:24.166Z,6.43
2022-12-06T01:21:51.305Z,4.95
2022-12-06T01:24:18.468Z,6.13
2022-12-06T01:26:45.581Z,8.10
2022-12-06T01:29:12.881Z,9.98
2022-12-06T01:31:40.019Z,6.82
2022-12-06T01:34:14.551Z,6.50
2022-12-06T01:36:41.758Z,8.23
2022-12-06T01:39:10.973Z,6.60
2022-12-06T01:41:38.867Z,6.30
2022-12-06T01:44:06.218Z,6.53
2022-12-06T01:46:43.709Z,6.97
2022-12-06T01:49:10.859Z,7.93
2022-12-06T01:51:38.064Z,9.10
2022-12-06T01:54:06.270Z,7.88
2022-12-06T01:56:33.474Z,6.75
2022-12-06T01:59:01.084Z,7.45
2022-12-06T02:01:29.277Z,7.53
2022-12-06T02:03:57.308Z,8.43
2022-12-06T02:06:24.455Z,8.32
2022-12-06T02:08:52.288Z,6.60
2022-12-06T02:11:19.451Z,7.93
2022-12-06T02:13:46.752Z,6.43
2022-12-06T02:16:25.050Z,5.85
2022-12-06T02:18:59.070Z,7.72
2022-12-06T02:21:29.873Z,7.87
2022-12-06T02:24:15.851Z,9.27
2022-12-06T02:26:48.137Z,8.40
2022-12-06T02:29:15.272Z,6.00
2022-12-06T02:31:48.504Z,7.05
2022-12-06T02:34:18.922Z,8.20
2022-12-06T02:36:46.019Z,10.10
2022-12-06T02:39:30.684Z,7.93
2022-12-06T02:42:08.638Z,10.23
2022-12-06T02:44:41.398Z,14.40
2022-12-06T02:47:09.494Z,9.73
2022-12-06T02:49:38.404Z,11.82
2022-12-06T02:52:05.642Z,11.20
2022-12-06T02:54:33.079Z,8.30
2022-12-06T02:57:00.230Z,11.15
2022-12-06T02:59:27.342Z,11.25
2022-12-06T03:01:58.188Z,9.15
2022-12-06T03:04:49.521Z,9.57
2022-12-06T03:07:25.821Z,9.57
2022-12-06T03:09:52.936Z,8.15
2022-12-06T03:12:29.166Z,8.55
2022-12-06T03:15:04.037Z,9.27
2022-12-06T03:20:02.739Z,8.38
2022-12-06T03:22:39.813Z,8.85
2022-12-06T03:25:08.615Z,8.65
2022-12-06T03:27:36.366Z,9.07
2022-12-06T03:30:05.737Z,8.63
2022-12-06T03:32:34.122Z,9.20
2022-12-06T03:35:06.082Z,8.40
2022-12-06T03:37:33.889Z,8.20
2022-12-06T03:40:17.437Z,8.18
2022-12-06T03:42:45.556Z,9.93
2022-12-06T03:45:13.044Z,8.75
2022-12-06T03:48:05.351Z,8.95
2022-12-06T03:50:38.898Z,8.20
2022-12-06T03:53:06.113Z,9.57
2022-12-06T03:55:33.344Z,9.13
2022-12-06T03:58:00.496Z,8.15
2022-12-06T04:00:27.633Z,7.47
2022-12-06T04:02:54.784Z,9.05
2022-12-06T04:05:21.991Z,9.75
2022-12-06T04:07:49.213Z,8.55
2022-12-06T04:10:16.397Z,9.52
2022-12-06T04:13:01.791Z,7.47
2022-12-06T04:15:30.405Z,7.43
2022-12-06T04:18:18.524Z,6.88
2022-12-06T04:21:07.195Z,9.02
2022-12-06T04:23:38.847Z,8.50
2022-12-06T04:26:07.479Z,10.15
2022-12-06T04:28:53.749Z,7.25
2022-12-06T04:31:39.930Z,8.40
2022-12-06T04:34:25.641Z,7.13
2022-12-06T04:37:11.616Z,7.75
2022-12-06T04:39:38.738Z,8.93
2022-12-06T04:42:24.323Z,9.77
2022-12-06T04:44:51.522Z,9.15
2022-12-06T04:47:18.678Z,9.90
2022-12-06T04:49:45.907Z,10.63
2022-12-06T04:52:13.386Z,8.02
2022-12-06T04:54:40.767Z,9.60
2022-12-06T04:57:11.135Z,11.10
2022-12-06T04:59:39.814Z,10.98
2022-12-06T05:02:07.507Z,9.93
2022-12-06T05:04:34.869Z,9.45
2022-12-06T05:07:02.304Z,9.40
2022-12-06T05:09:29.418Z,9.52
2022-12-06T05:11:56.654Z,8.25
2022-12-06T05:14:23.825Z,9.48
2022-12-06T05:16:51.043Z,9.73
2022-12-06T05:19:18.246Z,9.32
2022-12-06T05:21:45.468Z,8.65
2022-12-06T05:24:12.632Z,7.90
2022-12-06T05:26:39.738Z,9.88
2022-12-06T05:29:06.862Z,9.40
2022-12-06T05:31:34.073Z,8.07
2022-12-06T05:34:01.315Z,8.98
2022-12-06T05:36:28.877Z,10.68
2022-12-06T05:38:56.816Z,10.63
2022-12-06T05:41:24.340Z,10.32
2022-12-06T05:43:51.555Z,8.98
2022-12-06T05:46:19.136Z,9.50
2022-12-06T05:48:46.732Z,11.25
2022-12-06T05:51:13.891Z,11.65
2022-12-06T05:53:41.415Z,12.02
2022-12-06T05:56:10.013Z,10.00
2022-12-06T05:58:37.725Z,12.98
2022-12-06T06:01:05.770Z,11.73
2022-12-06T06:03:32.982Z,12.10
2022-12-06T06:06:01.249Z,14.48
2022-12-06T06:08:29.033Z,13.23
2022-12-06T06:10:56.585Z,15.18
2022-12-06T06:13:23.735Z,13.38
2022-12-06T06:15:51.007Z,13.43
2022-12-06T06:18:18.702Z,11.63
2022-12-06T06:20:52.711Z,15.52
2022-12-06T06:23:20.295Z,15.70
2022-12-06T06:25:47.898Z,16.05
2022-12-06T06:28:15.062Z,16.48
2022-12-06T06:30:42.245Z,14.18
2022-12-06T06:33:09.384Z,16.55
2022-12-06T06:35:36.713Z,16.38
2022-12-06T06:38:04.270Z,17.13
2022-12-06T06:40:31.583Z,17.55
2022-12-06T06:43:17.948Z,17.30
2022-12-06T06:45:46.050Z,18.70
2022-12-06T06:48:13.247Z,17.15
2022-12-06T06:50:40.563Z,17.75
2022-12-06T06:53:07.673Z,17.77
2022-12-06T06:55:36.214Z,19.42
2022-12-06T06:58:03.360Z,21.52
2022-12-06T07:00:30.712Z,20.90
2022-12-06T07:02:58.083Z,22.17
2022-12-06T07:05:25.345Z,22.30
2022-12-06T07:07:52.541Z,24.42
2022-12-06T07:10:20.045Z,21.00
2022-12-06T07:12:47.203Z,23.58
2022-12-06T07:15:14.343Z,21.20
2022-12-06T07:17:41.490Z,20.17
2022-12-06T07:20:09.075Z,20.70
2022-12-06T07:22:36.237Z,18.77
2022-12-06T07:25:03.359Z,21.00
2022-12-06T07:27:34.183Z,21.00
2022-12-06T07:30:01.525Z,18.92
2022-12-06T07:32:28.902Z,19.75
2022-12-06T07:34:56.050Z,18.80
2022-12-06T07:37:23.196Z,18.05
2022-12-06T07:39:50.446Z,20.73
2022-12-06T07:42:36.115Z,16.52
2022-12-06T07:45:04.519Z,17.10
2022-12-06T07:47:35.518Z,19.00
2022-12-06T07:50:03.187Z,17.40
2022-12-06T07:52:37.151Z,17.52
2022-12-06T07:55:05.419Z,19.23
2022-12-06T07:57:32.583Z,18.30
2022-12-06T08:00:00.110Z,19.10
2022-12-06T08:02:28.218Z,19.33
2022-12-06T08:04:55.786Z,20.80
2022-12-06T08:07:23.571Z,21.10
2022-12-06T08:09:51.763Z,15.55
2022-12-06T08:12:18.986Z,18.50
2022-12-06T08:14:46.231Z,18.63
2022-12-06T08:17:13.815Z,16.23
2022-12-06T08:19:40.959Z,16.40
2022-12-06T08:22:08.182Z,15.35
2022-12-06T08:24:35.278Z,14.63
2022-12-06T08:27:02.504Z,15.63
2022-12-06T08:29:29.637Z,16.00
2022-12-06T08:31:56.776Z,15.48
2022-12-06T08:34:26.690Z,16.98
2022-12-06T08:36:55.258Z,17.58
2022-12-06T08:39:25.690Z,14.20
2022-12-06T08:41:55.786Z,12.85
2022-12-06T08:44:22.910Z,14.13
2022-12-06T08:46:50.174Z,14.98
2022-12-06T08:49:17.705Z,13.35
2022-12-06T08:51:44.963Z,12.90
2022-12-06T08:54:13.970Z,13.88
2022-12-06T08:56:41.161Z,13.20
2022-12-06T08:59:08.505Z,12.75
2022-12-06T09:01:38.113Z,14.35
2022-12-06T09:04:06.952Z,14.48
2022-12-06T09:06:34.166Z,13.68
2022-12-06T09:09:01.331Z,13.50
2022-12-06T09:11:28.490Z,11.05
2022-12-06T09:13:55.646Z,12.35
2022-12-06T09:16:24.157Z,14.20
2022-12-06T09:18:51.755Z,12.80
2022-12-06T09:21:20.595Z,13.05
2022-12-06T09:23:47.832Z,12.85
2022-12-06T09:26:15.105Z,13.65
2022-12-06T09:28:42.983Z,13.25
2022-12-06T09:31:10.756Z,12.27
2022-12-06T09:33:38.154Z,14.32
2022-12-06T09:36:08.665Z,11.30
2022-12-06T09:38:36.994Z,13.60
2022-12-06T09:41:23.016Z,12.23
2022-12-06T09:43:59.352Z,13.55
2022-12-06T09:46:52.783Z,13.25
2022-12-06T09:49:27.851Z,13.32
2022-12-06T09:51:54.978Z,11.15
2022-12-06T09:54:27.836Z,14.02
2022-12-06T09:57:07.236Z,13.75
2022-12-06T09:59:34.356Z,13.85
2022-12-06T10:02:21.301Z,10.20
2022-12-06T10:04:59.245Z,13.13
2022-12-06T10:07:26.367Z,11.15
2022-12-06T10:10:05.803Z,11.77
2022-12-06T10:12:32.924Z,11.38
2022-12-06T10:15:05.278Z,11.95
2022-12-06T10:17:35.206Z,9.93
2022-12-06T10:20:05.479Z,10.82
2022-12-06T10:22:38.627Z,10.80
2022-12-06T10:25:14.816Z,10.63
2022-12-06T10:28:04.668Z,13.10
2022-12-06T10:30:34.779Z,10.27
2022-12-06T10:33:21.908Z,9.75
2022-12-06T10:35:55.426Z,8.30
2022-12-06T10:38:41.328Z,10.68
2022-12-06T10:41:23.690Z,8.95
2022-12-06T10:44:17.103Z,8.80
2022-12-06T10:47:06.311Z,9.70
2022-12-06T10:49:41.635Z,11.20
2022-12-06T10:52:17.854Z,10.52
2022-12-06T10:54:55.697Z,9.95
2022-12-06T10:57:26.231Z,9.73
2022-12-06T11:00:04.269Z,8.80
2022-12-06T11:02:31.846Z,9.02
2022-12-06T11:05:01.322Z,9.30
2022-12-06T11:07:35.933Z,10.25
2022-12-06T11:10:03.805Z,9.25
2022-12-06T11:12:35.349Z,9.70
2022-12-06T11:15:25.988Z,7.53
2022-12-06T11:17:58.022Z,10.73
2022-12-06T11:23:24.610Z,7.55
2022-12-06T11:26:24.222Z,8.23
2022-12-06T11:29:04.402Z,10.52
2022-12-06T11:31:50.388Z,10.50
2022-12-06T11:34:20.401Z,9.55
2022-12-06T11:36:52.870Z,7.95
2022-12-06T11:41:54.943Z,7.85
2022-12-06T11:44:25.575Z,10.48
2022-12-06T11:46:56.213Z,9.27
2022-12-06T11:49:33.220Z,7.13
2022-12-06T11:52:04.016Z,6.22
2022-12-06T11:54:45.504Z,6.55
2022-12-06T11:57:22.664Z,5.15
2022-12-06T12:00:10.384Z,5.90
2022-12-06T12:02:37.640Z,4.25
2022-12-06T12:05:15.262Z,6.47
2022-12-06T12:07:42.865Z,5.50
2022-12-06T12:10:22.302Z,5.45
2022-12-06T12:13:09.283Z,4.80
2022-12-06T12:15:36.721Z,5.15
2022-12-06T12:18:04.604Z,4.47
2022-12-06T12:20:33.457Z,6.55
2022-12-06T12:23:21.259Z,5.22
2022-12-06T12:26:00.822Z,5.28
2022-12-06T12:28:30.116Z,5.28
2022-12-06T12:30:58.214Z,5.68
2022-12-06T12:33:26.375Z,6.03
2022-12-06T12:35:55.058Z,5.00
2022-12-06T12:38:22.177Z,6.78
2022-12-06T12:40:51.715Z,4.65
2022-12-06T12:43:18.803Z,3.83
2022-12-06T12:46:04.887Z,5.03
2022-12-06T12:48:32.249Z,6.50
2022-12-06T12:51:01.028Z,8.30
2022-12-06T12:53:32.666Z,7.43
2022-12-06T12:56:10.585Z,5.65
2022-12-06T12:58:38.412Z,5.40
2022-12-06T13:01:19.614Z,6.15
2022-12-06T13:03:51.734Z,6.72
2022-12-06T13:06:27.408Z,7.70
2022-12-06T13:08:57.045Z,7.07
2022-12-06T13:11:24.391Z,6.15
2022-12-06T13:13:52.912Z,6.88
2022-12-06T13:16:22.546Z,18.10
2022-12-06T13:18:52.389Z,6.75
2022-12-06T13:21:24.150Z,5.72
2022-12-06T13:23:53.412Z,5.63
2022-12-06T13:26:25.773Z,6.93
2022-12-06T13:28:59.165Z,7.72
2022-12-06T13:31:30.527Z,10.38
2022-12-06T13:34:00.497Z,5.60
2022-12-06T13:36:27.812Z,6.00
2022-12-06T13:38:56.163Z,6.78
2022-12-06T13:41:54.127Z,6.55
2022-12-06T13:44:39.647Z,4.35
2022-12-06T13:47:25.666Z,6.10
2022-12-06T13:49:53.798Z,5.78
2022-12-06T13:52:41.076Z,6.85
2022-12-06T13:55:26.940Z,4.72
2022-12-06T13:58:17.022Z,6.03
2022-12-06T14:00:44.105Z,7.45
2022-12-06T14:03:14.141Z,5.03
2022-12-06T14:06:12.065Z,5.43
2022-12-06T14:08:41.260Z,7.40
2022-12-06T14:11:11.336Z,6.50
2022-12-06T14:13:38.618Z,5.32
2022-12-06T14:16:06.520Z,5.10
2022-12-06T14:18:34.790Z,5.43
2022-12-06T14:21:02.764Z,6.53
2022-12-06T14:23:31.815Z,6.57
2022-12-06T14:26:16.913Z,7.55
2022-12-06T14:28:44.456Z,7.45
2022-12-06T14:31:23.111Z,6.18
2022-12-06T14:33:50.550Z,4.88
2022-12-06T14:36:38.067Z,5.30
2022-12-06T14:39:23.030Z,6.57
2022-12-06T14:42:13.800Z,4.45
2022-12-06T14:44:41.551Z,4.78
2022-12-06T14:47:08.759Z,4.80
2022-12-06T14:49:55.025Z,8.27
2022-12-06T14:52:24.282Z,6.82
2022-12-06T14:54:52.207Z,4.10
2022-12-06T14:57:25.596Z,7.57
2022-12-06T15:00:22.559Z,5.40
2022-12-06T15:03:11.353Z,5.82
2022-12-06T15:05:40.278Z,4.65
2022-12-06T15:08:26.028Z,6.10
2022-12-06T15:10:57.300Z,3.70
2022-12-06T15:13:24.518Z,6.13
2022-12-06T15:16:02.633Z,6.43
2022-12-06T15:18:32.643Z,4.07
2022-12-06T15:20:59.797Z,4.05
2022-12-06T15:23:36.250Z,7.50
2022-12-06T15:26:04.004Z,6.72
2022-12-06T15:28:31.255Z,4.78
2022-12-06T15:30:59.190Z,4.93
2022-12-06T15:33:27.316Z,5.13
2022-12-06T15:35:54.771Z,4.10
2022-12-06T15:38:21.985Z,5.07
2022-12-06T15:40:51.152Z,5.97
2022-12-06T15:43:24.579Z,4.85
2022-12-06T15:45:51.734Z,7.32
2022-12-06T15:48:41.271Z,6.20
2022-12-06T15:51:18.882Z,9.93
2022-12-06T15:53:48.130Z,5.28
2022-12-06T15:56:16.914Z,5.00
2022-12-06T15:58:44.544Z,5.85
2022-12-06T16:01:23.209Z,7.15
2022-12-06T16:03:51.933Z,8.80
2022-12-06T16:06:32.096Z,7.68
2022-12-06T16:09:07.382Z,8.88
2022-12-06T16:11:35.825Z,5.95
2022-12-06T16:14:03.249Z,5.45
2022-12-06T16:16:30.499Z,7.95
2022-12-06T16:18:57.723Z,21.25
2022-12-06T16:21:27.247Z,5.45
2022-12-06T16:24:16.742Z,4.75
2022-12-06T16:26:45.509Z,7.97
2022-12-06T16:29:17.236Z,7.45
2022-12-06T16:31:45.773Z,7.35
2022-12-06T16:34:13.638Z,5.40
2022-12-06T16:37:00.738Z,6.75
2022-12-06T16:39:29.483Z,7.22
2022-12-06T16:41:56.760Z,7.88
2022-12-06T16:44:23.992Z,7.28
2022-12-06T16:46:51.973Z,10.60
2022-12-06T16:52:08.439Z,9.00
2022-12-06T16:54:35.922Z,7.65
2022-12-06T16:57:03.106Z,8.18
2022-12-06T16:59:30.271Z,6.60
2022-12-06T17:01:57.449Z,5.95
2022-12-06T17:04:26.039Z,7.60
2022-12-06T17:06:53.179Z,8.40
2022-12-06T17:09:20.632Z,6.95
2022-12-06T17:12:02.907Z,7.90
2022-12-06T17:14:30.222Z,6.28
2022-12-06T17:17:03.936Z,8.85
2022-12-06T17:19:31.924Z,7.23
2022-12-06T17:22:01.944Z,9.00
2022-12-06T17:24:34.854Z,7.78
2022-12-06T17:27:02.049Z,9.52
2022-12-06T17:29:29.192Z,9.43
2022-12-06T17:31:56.818Z,7.68
2022-12-06T17:34:25.804Z,7.22
2022-12-06T17:36:53.382Z,6.53
2022-12-06T17:40:49.897Z,9.73
2022-12-06T17:43:17.113Z,7.28
2022-12-06T17:45:44.291Z,8.00
2022-12-06T17:48:11.463Z,7.60
2022-12-06T17:50:38.717Z,6.78
2022-12-06T17:53:05.954Z,9.80
2022-12-06T17:55:33.077Z,7.75
2022-12-06T17:58:00.242Z,9.23
2022-12-06T18:00:27.429Z,8.85
2022-12-06T18:02:54.666Z,7.53
2022-12-06T18:05:21.897Z,9.23
2022-12-06T18:07:50.980Z,10.25
2022-12-06T18:10:19.050Z,9.32
2022-12-06T18:12:46.158Z,8.82
2022-12-06T18:15:33.239Z,10.23
2022-12-06T18:18:00.347Z,10.13
2022-12-06T18:20:27.510Z,10.02
2022-12-06T18:22:54.627Z,17.27
2022-12-06T18:25:22.291Z,12.05
2022-12-06T18:27:49.418Z,10.25
2022-12-06T18:30:16.740Z,10.48
2022-12-06T18:33:05.748Z,8.70
2022-12-06T18:35:35.659Z,10.35
2022-12-06T18:38:02.812Z,10.27
2022-12-06T18:40:31.707Z,9.25
2022-12-06T18:42:58.926Z,16.10
2022-12-06T18:45:26.226Z,10.93
2022-12-06T18:47:53.383Z,9.95
2022-12-06T18:50:20.589Z,10.98
2022-12-06T18:52:47.718Z,9.80
2022-12-06T18:55:14.865Z,13.98
2022-12-06T18:57:42.001Z,12.73
2022-12-06T19:00:09.474Z,9.15
2022-12-06T19:02:36.674Z,9.55
2022-12-06T19:05:04.418Z,8.15
2022-12-06T19:07:31.642Z,10.20
2022-12-06T19:09:59.063Z,9.55
2022-12-06T19:12:26.438Z,12.45
2022-12-06T19:14:53.585Z,10.48
2022-12-06T19:17:20.724Z,13.50
2022-12-06T19:19:47.851Z,10.00
2022-12-06T19:22:45.864Z,12.80
2022-12-06T19:25:12.982Z,9.32
2022-12-06T19:27:40.120Z,11.75
2022-12-06T19:30:08.356Z,10.90
2022-12-06T19:32:39.131Z,11.43
2022-12-06T19:35:08.540Z,9.90
2022-12-06T19:37:36.954Z,11.45
2022-12-06T19:40:04.467Z,10.05
2022-12-06T19:42:50.328Z,10.98
2022-12-06T19:45:17.665Z,10.55
2022-12-06T19:47:44.791Z,9.00
2022-12-06T19:50:11.975Z,9.93
2022-12-06T19:52:39.147Z,13.45
2022-12-06T19:55:06.386Z,11.85
2022-12-06T19:57:33.505Z,11.05
2022-12-06T20:00:01.003Z,12.38
2022-12-06T20:02:28.362Z,12.90
2022-12-06T20:04:55.531Z,13.00
2022-12-06T20:08:29.164Z,10.60
2022-12-06T20:10:56.381Z,10.63
2022-12-06T20:13:24.874Z,10.75
2022-12-06T20:15:52.522Z,10.77
2022-12-06T20:18:19.752Z,13.43
2022-12-06T20:20:47.954Z,12.80
2022-12-06T20:23:15.076Z,12.23
2022-12-06T20:25:42.614Z,11.98
2022-12-06T20:28:13.498Z,12.13
2022-12-06T20:30:41.120Z,13.43
2022-12-06T20:33:08.277Z,11.85
2022-12-06T20:35:38.408Z,14.77
2022-12-06T20:38:05.735Z,13.15
2022-12-06T20:40:34.384Z,15.73
2022-12-06T20:43:01.852Z,13.45
2022-12-06T20:45:28.987Z,13.27
2022-12-06T20:47:56.196Z,15.65
2022-12-06T20:50:23.369Z,14.10
2022-12-06T20:52:50.494Z,17.17
2022-12-06T20:55:17.661Z,14.63
2022-12-06T20:57:44.808Z,15.68
2022-12-06T21:00:12.701Z,17.15
2022-12-06T21:02:40.351Z,14.82
2022-12-06T21:05:07.679Z,17.33
2022-12-06T21:07:34.874Z,16.20
2022-12-06T21:10:02.340Z,17.38
2022-12-06T21:12:29.710Z,17.08
2022-12-06T21:14:56.912Z,15.55
2022-12-06T21:17:24.083Z,16.30
2022-12-06T21:19:51.244Z,17.83
2022-12-06T21:22:18.357Z,14.85
2022-12-06T21:24:45.773Z,16.35
2022-12-06T21:27:12.940Z,16.27
2022-12-06T21:29:42.564Z,14.93
2022-12-06T21:32:09.713Z,19.70
2022-12-06T21:34:42.888Z,16.00
2022-12-06T21:37:13.392Z,15.15
2022-12-06T21:39:41.184Z,16.30
2022-12-06T21:42:11.034Z,16.30
2022-12-06T21:44:38.142Z,17.90
2022-12-06T21:47:05.278Z,16.45
2022-12-06T21:49:32.406Z,18.20
2022-12-06T21:52:05.938Z,16.05
2022-12-06T21:54:36.285Z,15.35
2022-12-06T21:57:03.535Z,16.63
2022-12-06T21:59:30.728Z,16.17
2022-12-06T22:01:57.905Z,19.63
2022-12-06T22:04:25.202Z,16.65
2022-12-06T22:06:52.432Z,17.50
2022-12-06T22:09:19.577Z,18.48
2022-12-06T22:11:46.763Z,16.92
2022-12-06T22:14:13.897Z,19.48
2022-12-06T22:16:41.075Z,14.07
2022-12-06T22:19:08.158Z,19.80
2022-12-06T22:21:35.325Z,17.08
2022-12-06T22:24:03.043Z,15.73
2022-12-06T22:26:31.371Z,16.42
2022-12-06T22:28:59.562Z,19.90
2022-12-06T22:31:31.501Z,16.60
2022-12-06T22:33:58.721Z,18.02
2022-12-06T22:36:26.263Z,16.27
2022-12-06T22:38:54.869Z,18.95
2022-12-06T22:41:22.048Z,17.83
2022-12-06T22:43:53.383Z,18.67
2022-12-06T22:46:21.011Z,14.82
2022-12-06T22:48:48.447Z,16.10
2022-12-06T22:51:35.050Z,17.85
2022-12-06T22:54:06.784Z,13.55
2022-12-06T22:56:34.444Z,13.57
2022-12-06T22:59:02.336Z,27.58
2022-12-06T23:01:31.040Z,13.68
2022-12-06T23:03:59.955Z,12.68
2022-12-06T23:06:27.849Z,14.27
2022-12-06T23:08:55.206Z,16.45
2022-12-06T23:11:24.357Z,10.85
2022-12-06T23:13:51.494Z,14.95
2022-12-06T23:16:20.612Z,11.27
2022-12-06T23:18:47.804Z,12.85
2022-12-06T23:21:22.298Z,14.32
2022-12-06T23:23:53.555Z,13.35
2022-12-06T23:26:21.671Z,13.88
2022-12-06T23:28:49.032Z,14.07
2022-12-06T23:31:21.074Z,14.10
2022-12-06T23:33:48.771Z,16.65
2022-12-06T23:36:19.373Z,14.60
2022-12-06T23:38:46.827Z,13.77
2022-12-06T23:41:21.091Z,15.38
2022-12-06T23:43:48.577Z,14.13
2022-12-06T23:46:21.933Z,12.93
2022-12-06T23:48:49.878Z,16.75
2022-12-06T23:51:18.182Z,14.30
2022-12-06T23:53:45.676Z,13.25
2022-12-06T23:56:14.124Z,12.80
2022-12-06T23:58:41.607Z,15.50
